Time;durP1;ratioP1;P1;durP2;ratioP2;P2;SDS_P1;SDS_P2;PMS_P1;PMS_P2;Temp;Humidity;BMP_temperature;BMP_pressure;BME280_temperature;BME280_humidity;BME280_pressure;Samples;Min_cycle;Max_cycle;Signal;HPM_P1;HPM_P2
2024/03/09 00:00:27;;;;;;;192.30;179.47;;;7.40;1.00;;;;;;5051151;28;20529;-72
2024/03/09 00:02:56;;;;;;;177.80;165.50;;;7.40;1.00;;;;;;5051501;28;20408;-72
2024/03/09 00:05:24;;;;;;;181.57;168.93;;;7.40;1.00;;;;;;5050598;28;20478;-72
2024/03/09 00:07:50;;;;;;;221.03;206.80;;;7.40;1.00;;;;;;5050925;28;20462;-72
2024/03/09 00:10:16;;;;;;;200.97;187.67;;;7.40;1.00;;;;;;5051266;28;20431;-72
2024/03/09 00:12:48;;;;;;;220.63;206.53;;;7.40;99.90;;;;;;5033134;28;20417;-72
2024/03/09 00:15:15;;;;;;;174.03;161.77;;;7.30;99.90;;;;;;5050624;28;20200;-72
2024/03/09 00:17:47;;;;;;;188.33;175.40;;;7.30;99.90;;;;;;5050946;28;20418;-72
2024/03/09 00:20:21;;;;;;;199.17;186.23;;;7.40;99.90;;;;;;5051290;28;20974;-72
2024/03/09 00:22:52;;;;;;;175.17;162.87;;;7.40;99.90;;;;;;5051328;28;20837;-72
2024/03/09 00:25:20;;;;;;;235.33;220.70;;;7.20;1.00;;;;;;5051243;28;20569;-72
2024/03/09 00:27:46;;;;;;;156.60;144.73;;;7.20;99.90;;;;;;5050903;28;20415;-72
2024/03/09 00:30:17;;;;;;;163.77;151.73;;;7.20;99.90;;;;;;5050402;28;20426;-72
2024/03/09 00:32:50;;;;;;;190.33;177.63;;;7.30;99.90;;;;;;5051488;28;20179;-72
2024/03/09 00:35:16;;;;;;;186.97;173.93;;;7.20;1.00;;;;;;5051075;28;20419;-72
2024/03/09 00:37:42;;;;;;;176.93;164.33;;;7.20;99.90;;;;;;5051252;28;20894;-72
2024/03/09 00:40:09;;;;;;;170.37;157.70;;;7.20;99.90;;;;;;5051056;28;20454;-72
2024/03/09 00:42:35;;;;;;;190.50;177.60;;;7.20;99.90;;;;;;5051160;28;20406;-72
2024/03/09 00:45:05;;;;;;;206.17;192.27;;;7.20;1.00;;;;;;5050949;28;20452;-72
2024/03/09 00:47:35;;;;;;;174.80;162.33;;;7.20;23.70;;;;;;5051010;28;20414;-72
2024/03/09 00:50:09;;;;;;;163.50;151.50;;;7.20;99.90;;;;;;5050690;28;20433;-72
2024/03/09 00:52:35;;;;;;;189.93;176.37;;;7.10;99.90;;;;;;5051140;28;20416;-72
2024/03/09 00:55:01;;;;;;;158.13;146.23;;;7.10;99.90;;;;;;5050830;28;20924;-72
2024/03/09 00:57:27;;;;;;;167.87;155.67;;;7.10;99.90;;;;;;5051021;28;20495;-72
2024/03/09 00:59:52;;;;;;;167.30;155.30;;;7.00;1.00;;;;;;5050849;28;20258;-72
2024/03/09 01:02:19;;;;;;;197.00;183.73;;;7.00;1.00;;;;;;5054486;28;20195;-72
2024/03/09 01:04:46;;;;;;;179.77;167.07;;;7.00;1.00;;;;;;5054705;28;20682;-72
2024/03/09 01:07:13;;;;;;;187.30;173.93;;;7.00;99.90;;;;;;5054831;28;20428;-72
2024/03/09 01:09:41;;;;;;;174.57;162.17;;;7.10;99.90;;;;;;5054620;28;20933;-72
2024/03/09 01:12:07;;;;;;;191.83;178.53;;;7.00;99.90;;;;;;5054663;28;20417;-72
2024/03/09 01:14:33;;;;;;;197.03;183.67;;;7.00;99.90;;;;;;5054254;28;20907;-72
2024/03/09 01:16:59;;;;;;;185.47;172.77;;;7.20;99.90;;;;;;5054286;28;20174;-72
2024/03/09 01:19:25;;;;;;;186.87;174.30;;;7.00;1.00;;;;;;5054007;28;20261;-72
2024/03/09 01:21:52;;;;;;;173.60;161.13;;;7.00;99.90;;;;;;5054296;28;20453;-72
2024/03/09 01:24:20;;;;;;;195.50;181.97;;;7.00;1.00;;;;;;5053730;28;20188;-72
2024/03/09 01:26:46;;;;;;;222.70;208.47;;;7.00;99.90;;;;;;5053798;28;20410;-72
2024/03/09 01:29:11;;;;;;;217.70;203.83;;;7.00;99.90;;;;;;5053558;28;20786;-73
2024/03/09 01:31:38;;;;;;;244.67;229.80;;;7.00;1.00;;;;;;5053744;28;20184;-73
2024/03/09 01:34:05;;;;;;;209.60;196.13;;;7.10;1.00;;;;;;5053971;28;20176;-72
2024/03/09 01:36:31;;;;;;;239.73;224.87;;;7.10;1.00;;;;;;5054137;28;20475;-72
2024/03/09 01:38:57;;;;;;;207.23;193.50;;;7.10;99.90;;;;;;5053972;28;20904;-72
2024/03/09 01:41:25;;;;;;;226.57;212.50;;;7.10;99.90;;;;;;5054196;28;20901;-72
2024/03/09 01:43:51;;;;;;;215.10;201.60;;;7.20;99.90;;;;;;5054077;28;20421;-72
2024/03/09 01:46:20;;;;;;;251.27;236.47;;;7.20;99.90;;;;;;5054019;28;20773;-72
2024/03/09 01:48:48;;;;;;;254.80;239.87;;;7.10;1.00;;;;;;5053909;28;20199;-72
2024/03/09 01:51:15;;;;;;;208.30;195.07;;;7.20;1.00;;;;;;5053875;28;20420;-72
2024/03/09 01:53:43;;;;;;;217.00;203.63;;;7.20;1.00;;;;;;5053696;28;20411;-72
2024/03/09 01:56:12;;;;;;;229.53;215.23;;;7.10;1.00;;;;;;5053739;28;20761;-72
2024/03/09 01:58:41;;;;;;;241.03;226.67;;;7.10;43.10;;;;;;5053428;28;20458;-72
2024/03/09 02:01:41;;;;;;;233.40;219.20;;;7.10;1.00;;;;;;5053912;28;20402;-72
2024/03/09 02:04:00;;;;;;;222.33;208.63;;;7.20;1.00;;;;;;5050239;28;20442;-72
2024/03/09 02:06:27;;;;;;;240.33;225.83;;;7.20;1.00;;;;;;5053474;28;20406;-72
2024/03/09 02:08:58;;;;;;;229.73;215.77;;;7.10;1.00;;;;;;5053885;28;20441;-72
2024/03/09 02:11:24;;;;;;;233.37;219.20;;;7.20;1.00;;;;;;5053414;28;20493;-72
2024/03/09 02:13:53;;;;;;;231.93;217.67;;;7.20;99.90;;;;;;5053376;28;21057;-72
2024/03/09 02:16:22;;;;;;;268.20;252.87;;;7.20;1.00;;;;;;5053514;28;20410;-72
2024/03/09 02:18:48;;;;;;;269.50;254.47;;;7.10;99.90;;;;;;5053163;28;20493;-72
2024/03/09 02:21:17;;;;;;;263.37;248.37;;;7.20;1.00;;;;;;5053291;28;20981;-72
2024/03/09 02:23:47;;;;;;;274.57;259.47;;;7.20;99.90;;;;;;5052927;28;20391;-72
2024/03/09 02:26:15;;;;;;;290.07;274.10;;;7.20;1.00;;;;;;5053097;28;20399;-72
2024/03/09 02:28:51;;;;;;;273.27;258.03;;;7.30;1.00;;;;;;5053065;28;20427;-72
2024/03/09 02:31:16;;;;;;;254.83;240.03;;;7.30;1.00;;;;;;5053084;28;20776;-72
2024/03/09 02:33:42;;;;;;;250.50;235.83;;;7.20;1.00;;;;;;5052415;28;20403;-72
2024/03/09 02:36:08;;;;;;;241.67;227.40;;;7.30;1.00;;;;;;5052946;28;21091;-72
2024/03/09 02:38:34;;;;;;;274.03;258.23;;;7.40;99.90;;;;;;5052729;28;20242;-72
2024/03/09 02:41:00;;;;;;;267.67;252.70;;;7.30;1.00;;;;;;5052925;28;20410;-72
2024/03/09 02:43:25;;;;;;;266.47;251.57;;;7.20;1.00;;;;;;5052590;28;20165;-72
2024/03/09 02:45:52;;;;;;;289.67;273.80;;;7.20;1.00;;;;;;5052708;28;20628;-72
2024/03/09 02:48:17;;;;;;;254.90;240.43;;;7.20;1.00;;;;;;5052732;28;20230;-72
2024/03/09 02:50:43;;;;;;;282.00;266.33;;;7.20;1.00;;;;;;5052731;28;20441;-72
2024/03/09 02:53:09;;;;;;;284.03;268.57;;;7.10;1.00;;;;;;5052473;28;20180;-72
2024/03/09 02:55:35;;;;;;;283.43;267.93;;;7.20;1.00;;;;;;5052548;28;20172;-72
2024/03/09 02:58:00;;;;;;;267.50;252.47;;;7.20;1.00;;;;;;5052466;28;20192;-72
2024/03/09 03:00:26;;;;;;;270.07;254.77;;;7.30;1.00;;;;;;5052298;28;21032;-72
2024/03/09 03:05:43;;;;;;;286.13;270.57;;;7.30;1.00;;;;;;5052707;28;20397;-72
2024/03/09 03:08:09;;;;;;;273.43;257.93;;;7.10;1.00;;;;;;5052148;28;20404;-72
2024/03/09 03:10:36;;;;;;;273.03;257.63;;;7.30;1.00;;;;;;5051625;28;20415;-72
2024/03/09 03:13:04;;;;;;;280.77;265.50;;;7.30;1.00;;;;;;5051213;28;20426;-71
2024/03/09 03:15:30;;;;;;;246.60;231.87;;;7.30;1.00;;;;;;5052017;28;20426;-72
2024/03/09 03:17:56;;;;;;;273.43;258.17;;;7.30;1.00;;;;;;5052078;28;20516;-72
2024/03/09 03:20:22;;;;;;;292.43;275.90;;;7.30;1.00;;;;;;5051922;28;20253;-72
2024/03/09 03:22:48;;;;;;;288.20;272.63;;;7.30;1.00;;;;;;5051948;28;20411;-71
2024/03/09 03:25:14;;;;;;;306.63;289.83;;;7.30;1.00;;;;;;5051334;28;20634;-71
2024/03/09 03:27:41;;;;;;;274.80;259.77;;;7.30;1.00;;;;;;5052062;28;20435;-71
2024/03/09 03:30:10;;;;;;;269.93;254.97;;;7.30;1.00;;;;;;5050779;28;20513;-72
2024/03/09 03:32:39;;;;;;;266.43;251.40;;;7.30;1.00;;;;;;5051640;28;20826;-72
2024/03/09 03:35:05;;;;;;;272.07;256.70;;;7.40;1.00;;;;;;5051564;28;20552;-72
2024/03/09 03:37:33;;;;;;;304.60;288.37;;;7.40;1.00;;;;;;5051886;28;20416;-72
2024/03/09 03:39:59;;;;;;;273.10;257.93;;;7.40;1.00;;;;;;5051498;28;20695;-72
2024/03/09 03:42:26;;;;;;;287.83;272.20;;;7.40;1.00;;;;;;5051566;28;20411;-72
2024/03/09 03:44:52;;;;;;;309.43;293.10;;;7.40;1.00;;;;;;5051305;28;20403;-72
2024/03/09 03:47:18;;;;;;;313.27;296.20;;;7.50;92.90;;;;;;5051993;28;20437;-71
2024/03/09 03:49:46;;;;;;;304.93;288.57;;;7.50;1.00;;;;;;5051625;28;20441;-71
2024/03/09 03:52:14;;;;;;;293.43;277.80;;;7.60;3.40;;;;;;5051626;28;20444;-71
2024/03/09 03:54:39;;;;;;;279.17;263.40;;;7.50;2.80;;;;;;5051594;28;20461;-71
2024/03/09 03:57:05;;;;;;;317.73;300.93;;;7.50;2.80;;;;;;5051565;28;20445;-72
2024/03/09 03:59:34;;;;;;;268.33;252.97;;;7.50;2.50;;;;;;5051294;28;20205;-71
2024/03/09 04:02:00;;;;;;;262.83;247.53;;;7.50;2.40;;;;;;5051481;28;20164;-72
2024/03/09 04:04:26;;;;;;;255.73;240.73;;;7.40;2.60;;;;;;5051260;28;20456;-72
2024/03/09 04:06:52;;;;;;;245.03;230.33;;;7.40;3.10;;;;;;5051458;28;20410;-72
2024/03/09 04:09:19;;;;;;;240.50;226.20;;;7.40;3.00;;;;;;5051684;28;20435;-71
2024/03/09 04:11:49;;;;;;;233.67;219.67;;;7.40;3.00;;;;;;5051532;28;20179;-71
2024/03/09 04:14:16;;;;;;;248.80;234.03;;;7.40;3.20;;;;;;5050700;28;20406;-71
2024/03/09 04:16:42;;;;;;;219.97;206.37;;;7.30;4.10;;;;;;5051524;28;20992;-72
2024/03/09 04:19:09;;;;;;;229.60;215.20;;;7.30;5.00;;;;;;5051179;28;20461;-71
2024/03/09 04:21:34;;;;;;;233.10;218.97;;;7.30;5.70;;;;;;5051387;28;20253;-71
2024/03/09 04:24:01;;;;;;;223.03;209.13;;;7.20;7.00;;;;;;5051205;28;20406;-71
2024/03/09 04:26:28;;;;;;;250.63;235.40;;;7.20;7.00;;;;;;5051301;28;20225;-71
2024/03/09 04:28:54;;;;;;;289.87;274.40;;;7.20;6.30;;;;;;5051394;28;21000;-71
2024/03/09 04:31:20;;;;;;;275.57;259.90;;;7.20;6.30;;;;;;5051277;28;20438;-71
2024/03/09 04:33:45;;;;;;;246.17;231.57;;;7.30;5.60;;;;;;5050473;28;20180;-71
2024/03/09 04:36:12;;;;;;;253.07;237.93;;;7.30;6.40;;;;;;5052767;28;20223;-71
2024/03/09 04:38:38;;;;;;;257.47;241.63;;;7.30;5.40;;;;;;5054988;28;20227;-71
2024/03/09 04:41:04;;;;;;;241.67;227.00;;;7.30;7.20;;;;;;5054950;28;20446;-71
2024/03/09 04:43:37;;;;;;;249.37;234.90;;;7.40;8.40;;;;;;5054948;28;20283;-71
2024/03/09 04:46:04;;;;;;;250.33;235.43;;;7.40;9.90;;;;;;5054943;28;20194;-71
2024/03/09 04:48:29;;;;;;;256.43;241.50;;;7.40;9.00;;;;;;5054858;28;20431;-71
2024/03/09 04:50:55;;;;;;;288.27;272.03;;;7.40;9.30;;;;;;5055004;28;20423;-71
2024/03/09 04:53:20;;;;;;;286.47;270.57;;;7.50;8.60;;;;;;5054704;28;20179;-71
2024/03/09 04:55:51;;;;;;;275.47;259.83;;;7.50;7.40;;;;;;5054491;28;20172;-71
2024/03/09 04:58:21;;;;;;;287.83;272.00;;;7.50;7.60;;;;;;5054594;28;20193;-71
2024/03/09 05:00:47;;;;;;;274.03;258.37;;;7.50;7.50;;;;;;5054521;28;20913;-72
2024/03/09 05:03:13;;;;;;;292.10;275.47;;;7.40;7.10;;;;;;5054098;28;20482;-72
2024/03/09 05:05:40;;;;;;;289.87;273.73;;;7.40;8.20;;;;;;5054886;28;20206;-71
2024/03/09 05:08:06;;;;;;;288.47;271.67;;;7.10;23.20;;;;;;5054552;28;20407;-71
2024/03/09 05:10:32;;;;;;;296.97;280.33;;;7.40;10.40;;;;;;5054625;28;20409;-71
2024/03/09 05:12:58;;;;;;;296.70;280.03;;;7.50;11.70;;;;;;5054456;28;20413;-70
2024/03/09 05:15:31;;;;;;;290.67;274.40;;;7.50;8.80;;;;;;5054237;28;20177;-72
2024/03/09 05:17:59;;;;;;;278.53;262.87;;;7.20;22.00;;;;;;5054440;28;20169;-71
2024/03/09 05:20:26;;;;;;;277.23;259.70;;;7.40;9.00;;;;;;5054344;28;20458;-71
2024/03/09 05:22:53;;;;;;;272.13;256.87;;;7.40;9.40;;;;;;5054382;28;20409;-71
2024/03/09 05:25:21;;;;;;;267.87;252.27;;;7.40;8.80;;;;;;5054161;28;20414;-71
2024/03/09 05:27:47;;;;;;;276.40;260.63;;;7.40;9.00;;;;;;5054269;28;20414;-71
2024/03/09 05:30:18;;;;;;;330.13;312.27;;;7.30;9.00;;;;;;5054110;28;20426;-71
2024/03/09 05:32:53;;;;;;;260.37;245.07;;;7.40;9.30;;;;;;5054102;28;20176;-71
2024/03/09 05:35:31;;;;;;;304.13;287.63;;;7.40;10.40;;;;;;5053877;28;20407;-71
2024/03/09 05:38:00;;;;;;;271.57;255.97;;;7.40;22.60;;;;;;5054049;28;20929;-71
2024/03/09 05:40:28;;;;;;;280.30;264.37;;;7.30;10.80;;;;;;5053916;28;20446;-71
2024/03/09 05:42:55;;;;;;;289.10;272.83;;;7.30;10.80;;;;;;5053803;28;20408;-71
2024/03/09 05:45:22;;;;;;;289.97;273.93;;;7.30;11.70;;;;;;5053740;28;20413;-71
2024/03/09 05:47:52;;;;;;;284.40;268.30;;;7.30;10.90;;;;;;5053371;28;20472;-71
2024/03/09 05:50:19;;;;;;;301.87;285.00;;;7.30;11.50;;;;;;5053787;28;20972;-71
2024/03/09 05:52:47;;;;;;;297.47;281.07;;;7.30;12.70;;;;;;5053818;28;20411;-70
2024/03/09 05:55:13;;;;;;;307.30;290.43;;;7.30;13.00;;;;;;5053446;28;20407;-71
2024/03/09 05:57:42;;;;;;;303.73;286.60;;;7.30;14.20;;;;;;5053914;28;20476;-70
2024/03/09 06:00:09;;;;;;;223.67;209.40;;;7.20;11.20;;;;;;5053412;28;20467;-71
2024/03/09 06:02:39;;;;;;;215.50;201.63;;;7.10;9.80;;;;;;5053664;28;20806;-71
2024/03/09 06:05:07;;;;;;;203.43;189.87;;;7.00;8.70;;;;;;5053510;28;20410;-71
2024/03/09 06:07:36;;;;;;;201.13;188.10;;;6.90;8.20;;;;;;5053229;28;20797;-70
2024/03/09 06:10:02;;;;;;;293.70;275.53;;;6.70;8.80;;;;;;5052918;28;20434;-71
2024/03/09 06:12:27;;;;;;;189.23;176.07;;;6.60;10.20;;;;;;5053402;28;20909;-70
2024/03/09 06:14:55;;;;;;;173.33;160.33;;;6.40;12.20;;;;;;5053238;28;20172;-70
2024/03/09 06:17:20;;;;;;;184.33;171.53;;;6.30;14.60;;;;;;5053021;28;20171;-70
2024/03/09 06:19:46;;;;;;;181.93;169.10;;;6.10;16.30;;;;;;5053286;28;20460;-71
2024/03/09 06:22:11;;;;;;;211.47;197.70;;;6.00;18.00;;;;;;5053335;28;20175;-70
2024/03/09 06:24:38;;;;;;;177.27;164.63;;;6.00;19.70;;;;;;5053003;28;20635;-70
2024/03/09 06:27:05;;;;;;;169.27;156.87;;;6.00;21.00;;;;;;5053438;28;20673;-71
2024/03/09 06:29:31;;;;;;;180.00;167.13;;;6.00;21.80;;;;;;5053053;28;20430;-71
2024/03/09 06:31:57;;;;;;;181.50;168.47;;;6.00;22.70;;;;;;5053029;28;20985;-69
2024/03/09 06:34:23;;;;;;;338.57;319.60;;;5.90;23.00;;;;;;5052355;28;20530;-70
2024/03/09 06:36:50;;;;;;;154.73;142.67;;;6.00;23.80;;;;;;5052631;28;20643;-71
2024/03/09 06:39:18;;;;;;;239.67;224.53;;;6.00;24.10;;;;;;5052684;28;20980;-70
2024/03/09 06:41:52;;;;;;;288.37;271.63;;;5.90;24.70;;;;;;5052974;28;20402;-71
2024/03/09 06:44:18;;;;;;;171.37;158.70;;;5.90;26.00;;;;;;5052627;28;20430;-70
2024/03/09 06:46:43;;;;;;;183.83;171.20;;;5.90;25.30;;;;;;5052761;28;20438;-70
2024/03/09 06:49:09;;;;;;;517.97;487.67;;;5.90;27.30;;;;;;5052067;28;20544;-69
2024/03/09 06:51:35;;;;;;;200.13;186.93;;;6.00;28.60;;;;;;5052668;28;20179;-71
2024/03/09 06:54:00;;;;;;;188.33;175.10;;;6.10;28.10;;;;;;5052463;28;20168;-70
2024/03/09 06:56:26;;;;;;;507.47;481.23;;;6.10;27.10;;;;;;5052293;28;20623;-70
2024/03/09 06:58:53;;;;;;;237.00;221.87;;;6.20;27.50;;;;;;5050793;28;20249;-70
2024/03/09 07:01:21;;;;;;;231.50;216.83;;;6.30;27.60;;;;;;5052547;28;20481;-70
2024/03/09 07:03:47;;;;;;;246.97;232.27;;;6.30;26.10;;;;;;5052164;28;20410;-71
2024/03/09 07:06:13;;;;;;;235.93;220.77;;;6.40;24.90;;;;;;5052258;28;20456;-71
2024/03/09 07:08:38;;;;;;;278.10;262.47;;;6.40;24.30;;;;;;5034596;28;20211;-70
2024/03/09 07:11:04;;;;;;;254.60;239.63;;;6.50;23.50;;;;;;5052188;28;20171;-70
2024/03/09 07:13:30;;;;;;;263.50;248.23;;;6.50;22.10;;;;;;5051246;28;20167;-70
2024/03/09 07:15:55;;;;;;;242.83;227.73;;;6.60;21.60;;;;;;5052089;28;20555;-70
2024/03/09 07:18:24;;;;;;;252.60;237.27;;;6.60;20.50;;;;;;5051968;28;20418;-71
2024/03/09 07:20:52;;;;;;;258.80;243.70;;;6.70;21.30;;;;;;5051738;28;20191;-71
2024/03/09 07:23:17;;;;;;;271.20;255.47;;;6.90;20.00;;;;;;5051855;28;20410;-71
2024/03/09 07:25:43;;;;;;;266.40;251.23;;;6.80;19.30;;;;;;5052069;28;20786;-70
2024/03/09 07:28:11;;;;;;;241.13;225.47;;;6.50;33.90;;;;;;5051233;28;20164;-70
2024/03/09 07:30:37;;;;;;;250.73;235.57;;;6.80;17.60;;;;;;5051787;28;20202;-70
2024/03/09 07:33:03;;;;;;;268.47;252.97;;;6.90;16.90;;;;;;5051770;28;20835;-70
2024/03/09 07:35:29;;;;;;;242.43;227.87;;;6.90;15.70;;;;;;5033621;28;20176;-70
2024/03/09 07:37:58;;;;;;;260.93;245.83;;;7.00;31.10;;;;;;5051113;28;20406;-70
2024/03/09 07:40:29;;;;;;;339.77;321.30;;;7.00;16.20;;;;;;5051846;28;20233;-71
2024/03/09 07:42:55;;;;;;;388.40;366.63;;;7.00;15.40;;;;;;5051721;28;20395;-71
2024/03/09 07:45:22;;;;;;;643.73;608.73;;;7.10;15.70;;;;;;5046638;28;20499;-70
2024/03/09 07:47:49;;;;;;;300.43;283.73;;;7.20;15.10;;;;;;5031417;28;20672;-70
2024/03/09 07:50:16;;;;;;;400.17;378.30;;;7.20;13.60;;;;;;5031246;28;20428;-70
2024/03/09 07:52:50;;;;;;;317.63;300.43;;;7.20;13.30;;;;;;5031700;28;20411;-70
2024/03/09 07:55:20;;;;;;;558.50;529.00;;;7.30;13.00;;;;;;5031497;28;20431;-71
2024/03/09 07:57:49;;;;;;;308.10;291.70;;;7.40;11.70;;;;;;5031255;28;20517;-71
2024/03/09 08:00:34;;;;;;;311.13;294.13;;;7.60;12.50;;;;;;5031428;28;20495;-70
2024/03/09 08:03:01;;;;;;;331.07;313.13;;;7.60;10.80;;;;;;5031727;28;20403;-71
2024/03/09 08:05:28;;;;;;;520.50;493.73;;;7.70;10.60;;;;;;5030735;28;20409;-70
2024/03/09 08:07:55;;;;;;;304.83;288.10;;;7.80;22.70;;;;;;5030652;28;20918;-70
2024/03/09 08:10:23;;;;;;;286.10;270.10;;;7.80;7.00;;;;;;5030361;28;20471;-71
2024/03/09 08:12:49;;;;;;;279.53;263.77;;;7.80;7.10;;;;;;5031515;28;20404;-71
2024/03/09 08:15:15;;;;;;;287.67;271.90;;;7.80;8.00;;;;;;5031176;28;20407;-70
2024/03/09 08:17:41;;;;;;;660.63;625.60;;;7.90;8.00;;;;;;5031532;28;20420;-70
2024/03/09 08:20:14;;;;;;;313.60;296.70;;;7.90;8.50;;;;;;5031277;28;20482;-69
2024/03/09 08:22:40;;;;;;;354.43;335.83;;;8.00;7.60;;;;;;5031511;28;20415;-70
2024/03/09 08:25:07;;;;;;;340.83;322.33;;;8.20;6.50;;;;;;5031210;28;20416;-71
2024/03/09 08:27:37;;;;;;;418.30;395.90;;;8.40;4.00;;;;;;5031262;28;20768;-71
2024/03/09 08:30:08;;;;;;;303.37;286.80;;;8.40;2.50;;;;;;5031245;28;20443;-69
2024/03/09 08:32:35;;;;;;;340.07;321.80;;;8.60;2.10;;;;;;5031342;28;20400;-70
2024/03/09 08:35:08;;;;;;;417.87;396.53;;;8.70;2.90;;;;;;5031084;28;20409;-71
2024/03/09 08:37:41;;;;;;;342.50;324.73;;;8.80;1.00;;;;;;5031261;28;20937;-70
2024/03/09 08:40:08;;;;;;;378.97;360.43;;;8.80;1.00;;;;;;5031101;28;20480;-70
2024/03/09 08:42:34;;;;;;;340.60;322.73;;;9.20;1.00;;;;;;5031107;28;20933;-69
2024/03/09 08:45:00;;;;;;;395.43;375.80;;;9.20;1.00;;;;;;5030996;28;20445;-70
2024/03/09 08:47:26;;;;;;;385.13;365.37;;;9.50;1.00;;;;;;5031213;28;20404;-70
2024/03/09 08:49:51;;;;;;;607.57;576.70;;;9.50;1.00;;;;;;5031058;28;20520;-69
2024/03/09 08:52:18;;;;;;;1045.87;968.67;;;9.50;1.00;;;;;;5031049;28;20176;-71
2024/03/09 08:54:44;;;;;;;432.93;411.60;;;9.60;1.00;;;;;;5030820;28;20180;-70
2024/03/09 08:57:11;;;;;;;562.57;530.20;;;9.70;1.00;;;;;;5031203;28;20473;-70
2024/03/09 08:59:40;;;;;;;346.07;327.63;;;9.60;1.00;;;;;;5030873;28;20465;-71
2024/03/09 09:02:06;;;;;;;486.23;461.60;;;9.60;1.00;;;;;;5030937;28;20418;-70
2024/03/09 09:04:34;;;;;;;294.47;278.20;;;9.60;1.00;;;;;;5030807;28;20403;-70
2024/03/09 09:07:00;;;;;;;306.47;289.47;;;9.60;1.00;;;;;;5030957;28;20652;-70
2024/03/09 09:09:26;;;;;;;344.87;326.67;;;9.70;1.00;;;;;;5030930;28;20484;-69
2024/03/09 09:11:53;;;;;;;338.33;320.73;;;9.70;1.00;;;;;;5030844;28;20419;-69
2024/03/09 09:14:19;;;;;;;314.57;297.70;;;9.60;1.00;;;;;;5030701;28;20402;-70
2024/03/09 09:16:46;;;;;;;508.90;482.17;;;9.70;1.00;;;;;;5030979;28;20417;-71
2024/03/09 09:19:12;;;;;;;528.47;501.53;;;9.90;1.00;;;;;;5030738;28;20873;-71
2024/03/09 09:21:38;;;;;;;670.63;634.00;;;9.80;1.00;;;;;;5031553;28;20405;-70
2024/03/09 09:24:04;;;;;;;371.87;352.87;;;10.00;1.00;;;;;;5034154;28;20186;-70
2024/03/09 09:26:30;;;;;;;340.33;322.70;;;10.30;1.00;;;;;;5034508;28;20529;-69
2024/03/09 09:28:56;;;;;;;342.43;324.40;;;10.60;1.00;;;;;;5034406;28;21116;-70
2024/03/09 09:31:21;;;;;;;329.57;312.30;;;10.70;1.00;;;;;;5034387;28;20658;-70
2024/03/09 09:33:47;;;;;;;316.33;299.47;;;10.90;1.00;;;;;;5034074;28;20173;-70
2024/03/09 09:36:12;;;;;;;550.03;520.77;;;11.10;1.00;;;;;;5034187;28;20165;-70
2024/03/09 09:38:39;;;;;;;348.87;330.80;;;11.20;1.00;;;;;;5034133;28;20184;-71
2024/03/09 09:41:08;;;;;;;300.97;284.87;;;11.30;1.00;;;;;;5034139;28;20207;-70
2024/03/09 09:43:37;;;;;;;437.20;414.80;;;11.40;1.00;;;;;;5033855;28;20487;-71
2024/03/09 09:46:04;;;;;;;360.27;342.23;;;11.70;1.00;;;;;;5034462;28;20403;-71
2024/03/09 09:48:32;;;;;;;776.97;732.97;;;11.60;1.00;;;;;;5035334;28;20427;-70
2024/03/09 09:50:59;;;;;;;414.17;393.73;;;11.50;1.00;;;;;;5036274;28;20473;-71
2024/03/09 09:53:25;;;;;;;297.93;281.87;;;11.50;1.00;;;;;;5034920;28;20582;-70
2024/03/09 09:55:51;;;;;;;277.37;261.77;;;11.60;1.00;;;;;;5035041;28;20504;-71
2024/03/09 09:58:16;;;;;;;280.47;264.93;;;11.50;1.00;;;;;;5035174;28;20193;-71
2024/03/09 10:00:43;;;;;;;330.30;312.83;;;11.50;1.00;;;;;;5034871;28;20459;-71
2024/03/09 10:03:10;;;;;;;940.60;876.30;;;11.70;1.00;;;;;;5034539;28;20175;-71
2024/03/09 10:05:39;;;;;;;292.87;276.90;;;11.90;1.00;;;;;;5034509;28;20421;-71
2024/03/09 10:08:10;;;;;;;266.33;251.43;;;12.30;1.00;;;;;;5034220;28;20409;-71
2024/03/09 10:10:41;;;;;;;709.33;671.30;;;12.30;1.00;;;;;;5034151;28;20408;-71
2024/03/09 10:13:11;;;;;;;288.70;273.20;;;12.50;1.00;;;;;;5033937;28;20406;-70
2024/03/09 10:15:40;;;;;;;311.13;293.87;;;12.80;1.00;;;;;;5043890;28;20432;-70
2024/03/09 10:18:07;;;;;;;350.43;331.53;;;13.50;1.00;;;;;;5028343;28;20418;-72
2024/03/09 10:20:35;;;;;;;332.23;315.00;;;13.30;1.00;;;;;;5032375;28;20860;-71
2024/03/09 10:23:04;;;;;;;243.10;228.70;;;13.60;1.00;;;;;;5033484;28;20409;-72
2024/03/09 10:25:35;;;;;;;271.53;254.93;;;13.70;1.00;;;;;;5032884;28;20935;-71
2024/03/09 10:28:02;;;;;;;659.07;622.60;;;13.70;1.00;;;;;;5059824;28;20458;-70
2024/03/09 10:30:28;;;;;;;222.60;208.93;;;13.60;1.00;;;;;;5054201;28;20856;-69
2024/03/09 10:32:54;;;;;;;239.30;224.97;;;13.70;1.00;;;;;;5052379;28;20446;-70
2024/03/09 10:35:24;;;;;;;284.87;268.63;;;13.60;1.00;;;;;;5051939;28;20438;-70
2024/03/09 10:37:55;;;;;;;537.93;508.90;;;13.60;1.00;;;;;;5052914;28;20923;-70
2024/03/09 10:40:21;;;;;;;230.40;216.27;;;13.60;1.00;;;;;;5051461;28;20438;-70
2024/03/09 10:42:49;;;;;;;304.70;287.47;;;13.60;1.00;;;;;;5052259;28;20418;-70
2024/03/09 10:45:23;;;;;;;252.83;237.97;;;13.60;1.00;;;;;;5052372;28;20500;-70
2024/03/09 10:47:54;;;;;;;216.23;202.67;;;13.50;1.00;;;;;;5052592;28;20511;-70
2024/03/09 10:50:30;;;;;;;183.77;170.63;;;13.70;1.00;;;;;;5052930;28;20902;-70
2024/03/09 10:53:10;;;;;;;236.60;221.77;;;13.60;1.00;;;;;;5052559;28;20403;-70
2024/03/09 10:55:52;;;;;;;568.67;537.13;;;13.60;1.00;;;;;;5052406;28;20398;-70
2024/03/09 10:58:20;;;;;;;418.03;394.53;;;13.90;1.00;;;;;;5052510;28;20510;-70
2024/03/09 11:00:49;;;;;;;651.40;614.47;;;14.00;1.00;;;;;;5052416;28;20457;-69
2024/03/09 11:03:20;;;;;;;205.80;192.30;;;14.10;1.00;;;;;;5051524;28;20409;-70
2024/03/09 11:05:46;;;;;;;217.37;203.63;;;14.30;1.00;;;;;;5052280;28;20398;-70
2024/03/09 11:08:13;;;;;;;295.00;277.87;;;14.50;1.00;;;;;;5052008;28;20809;-69
2024/03/09 11:10:41;;;;;;;227.13;213.10;;;14.50;1.00;;;;;;5052152;28;20907;-70
2024/03/09 11:13:11;;;;;;;744.50;703.37;;;14.60;1.00;;;;;;5051028;28;20406;-69
2024/03/09 11:15:40;;;;;;;338.20;319.93;;;14.60;1.00;;;;;;5051799;28;20407;-69
2024/03/09 11:18:12;;;;;;;226.00;211.70;;;14.50;1.00;;;;;;5051488;28;20972;-70
2024/03/09 11:21:02;;;;;;;221.33;207.30;;;14.60;1.00;;;;;;5051655;28;20462;-70
2024/03/09 11:23:36;;;;;;;232.13;217.43;;;14.30;1.00;;;;;;5050881;28;20797;-70
2024/03/09 11:26:02;;;;;;;212.70;198.70;;;14.30;1.00;;;;;;5052115;28;20404;-70
2024/03/09 11:28:43;;;;;;;183.03;170.37;;;14.30;1.00;;;;;;5051867;28;20452;-70
2024/03/09 11:31:13;;;;;;;224.80;210.50;;;14.50;1.00;;;;;;5051301;28;20800;-70
2024/03/09 11:33:53;;;;;;;157.30;145.10;;;14.60;1.00;;;;;;5051224;28;20840;-70
2024/03/09 11:36:45;;;;;;;498.27;471.57;;;14.60;1.00;;;;;;5052273;28;20916;-70
2024/03/09 11:39:12;;;;;;;169.17;157.07;;;14.60;1.00;;;;;;5050962;28;20447;-70
2024/03/09 11:41:44;;;;;;;212.47;198.93;;;14.80;1.00;;;;;;5051865;28;20490;-70
2024/03/09 11:44:30;;;;;;;255.37;240.23;;;15.00;1.00;;;;;;5050457;28;20908;-70
2024/03/09 11:46:56;;;;;;;455.73;431.07;;;15.30;1.00;;;;;;5051120;28;20421;-70
2024/03/09 11:49:27;;;;;;;225.00;211.03;;;15.70;1.00;;;;;;5051496;28;20808;-70
2024/03/09 11:51:53;;;;;;;85.47;67.10;;;16.10;1.00;;;;;;5051575;28;20409;-71
2024/03/09 11:54:20;;;;;;;88.30;78.33;;;16.70;1.00;;;;;;5050416;28;20420;-70
2024/03/09 11:56:46;;;;;;;102.70;92.43;;;17.70;1.00;;;;;;5051570;28;20410;-70
2024/03/09 11:59:12;;;;;;;79.53;53.43;;;18.30;1.00;;;;;;5051290;28;20459;-70
2024/03/09 12:01:42;;;;;;;85.00;64.47;;;18.60;1.00;;;;;;5051079;28;20486;-70
2024/03/09 12:04:08;;;;;;;112.23;101.20;;;18.80;1.00;;;;;;5050446;28;20474;-70
2024/03/09 12:06:34;;;;;;;113.17;100.30;;;18.90;1.00;;;;;;5051564;28;20407;-70
2024/03/09 12:09:00;;;;;;;76.17;42.63;;;19.00;1.00;;;;;;5050974;28;20927;-70
2024/03/09 12:11:29;;;;;;;82.17;52.57;;;18.90;1.00;;;;;;5051450;28;20904;-70
2024/03/09 12:13:56;;;;;;;77.07;42.27;;;19.30;1.00;;;;;;5050634;28;20416;-70
2024/03/09 12:16:24;;;;;;;85.67;47.53;;;19.50;1.00;;;;;;5050918;28;20931;-70
2024/03/09 12:18:50;;;;;;;75.93;39.47;;;19.60;1.00;;;;;;5051083;28;20434;-70
2024/03/09 12:21:20;;;;;;;130.87;114.43;;;19.60;1.00;;;;;;5051243;28;20897;-70
2024/03/09 12:23:52;;;;;;;78.50;33.77;;;19.60;1.00;;;;;;5050188;28;20409;-70
2024/03/09 12:26:18;;;;;;;77.00;27.67;;;19.90;1.00;;;;;;5050837;28;20897;-70
2024/03/09 12:28:45;;;;;;;88.67;60.80;;;20.10;1.00;;;;;;5051216;28;20421;-70